sensor_id;sensor_type;location;lat;lon;timestamp;P1;durP1;ratioP1;P2;durP2;ratioP2
8632;SDS011;4354;49.832;10.746;2023-02-15T00:01:41;46.77;;;20.17;;
8632;SDS011;4354;49.832;10.746;2023-02-15T00:04:09;47.57;;;19.83;;
8632;SDS011;4354;49.832;10.746;2023-02-15T00:06:38;52.83;;;21.20;;
8632;SDS011;4354;49.832;10.746;2023-02-15T00:09:05;50.27;;;20.43;;
8632;SDS011;4354;49.832;10.746;2023-02-15T00:11:32;43.83;;;18.93;;
8632;SDS011;4354;49.832;10.746;2023-02-15T00:14:10;74.73;;;19.90;;
8632;SDS011;4354;49.832;10.746;2023-02-15T00:16:42;55.57;;;17.87;;
8632;SDS011;4354;49.832;10.746;2023-02-15T00:19:10;39.90;;;18.40;;
8632;SDS011;4354;49.832;10.746;2023-02-15T00:21:38;50.23;;;16.90;;
8632;SDS011;4354;49.832;10.746;2023-02-15T00:24:07;46.27;;;17.57;;
8632;SDS011;4354;49.832;10.746;2023-02-15T00:26:35;37.40;;;16.70;;
8632;SDS011;4354;49.832;10.746;2023-02-15T00:29:03;95.63;;;19.60;;
8632;SDS011;4354;49.832;10.746;2023-02-15T00:31:31;128.57;;;18.27;;
8632;SDS011;4354;49.832;10.746;2023-02-15T00:34:06;43.83;;;17.33;;
8632;SDS011;4354;49.832;10.746;2023-02-15T00:36:37;45.97;;;15.63;;
8632;SDS011;4354;49.832;10.746;2023-02-15T00:39:04;33.03;;;15.17;;
8632;SDS011;4354;49.832;10.746;2023-02-15T00:41:32;46.73;;;15.30;;
8632;SDS011;4354;49.832;10.746;2023-02-15T00:43:59;54.77;;;16.93;;
8632;SDS011;4354;49.832;10.746;2023-02-15T00:46:26;29.03;;;14.97;;
8632;SDS011;4354;49.832;10.746;2023-02-15T00:48:52;69.10;;;16.87;;
8632;SDS011;4354;49.832;10.746;2023-02-15T00:51:19;28.20;;;14.00;;
8632;SDS011;4354;49.832;10.746;2023-02-15T00:53:49;32.17;;;15.73;;
8632;SDS011;4354;49.832;10.746;2023-02-15T00:56:16;47.53;;;18.13;;
8632;SDS011;4354;49.832;10.746;2023-02-15T00:58:42;41.93;;;15.93;;
8632;SDS011;4354;49.832;10.746;2023-02-15T01:01:10;94.77;;;19.87;;
8632;SDS011;4354;49.832;10.746;2023-02-15T01:03:43;58.43;;;16.63;;
8632;SDS011;4354;49.832;10.746;2023-02-15T01:06:12;77.63;;;16.83;;
8632;SDS011;4354;49.832;10.746;2023-02-15T01:08:40;48.17;;;15.50;;
8632;SDS011;4354;49.832;10.746;2023-02-15T01:11:08;46.70;;;15.17;;
8632;SDS011;4354;49.832;10.746;2023-02-15T01:13:37;38.70;;;15.27;;
8632;SDS011;4354;49.832;10.746;2023-02-15T01:16:04;43.50;;;15.80;;
8632;SDS011;4354;49.832;10.746;2023-02-15T01:18:31;43.70;;;15.20;;
8632;SDS011;4354;49.832;10.746;2023-02-15T01:20:59;43.97;;;15.07;;
8632;SDS011;4354;49.832;10.746;2023-02-15T01:23:26;31.17;;;14.67;;
8632;SDS011;4354;49.832;10.746;2023-02-15T01:25:52;43.53;;;13.97;;
8632;SDS011;4354;49.832;10.746;2023-02-15T01:28:19;27.93;;;13.47;;
8632;SDS011;4354;49.832;10.746;2023-02-15T01:30:46;30.77;;;14.67;;
8632;SDS011;4354;49.832;10.746;2023-02-15T01:33:13;30.50;;;14.00;;
8632;SDS011;4354;49.832;10.746;2023-02-15T01:35:44;28.70;;;14.03;;
8632;SDS011;4354;49.832;10.746;2023-02-15T01:38:12;36.63;;;14.17;;
8632;SDS011;4354;49.832;10.746;2023-02-15T01:40:40;35.60;;;14.20;;
8632;SDS011;4354;49.832;10.746;2023-02-15T01:43:10;32.03;;;14.57;;
8632;SDS011;4354;49.832;10.746;2023-02-15T01:45:38;40.50;;;13.93;;
8632;SDS011;4354;49.832;10.746;2023-02-15T01:50:40;41.47;;;14.67;;
8632;SDS011;4354;49.832;10.746;2023-02-15T01:53:31;27.80;;;14.00;;
8632;SDS011;4354;49.832;10.746;2023-02-15T01:56:09;35.87;;;14.93;;
8632;SDS011;4354;49.832;10.746;2023-02-15T01:58:41;42.90;;;14.83;;
8632;SDS011;4354;49.832;10.746;2023-02-15T02:01:09;28.87;;;14.03;;
8632;SDS011;4354;49.832;10.746;2023-02-15T02:03:38;34.77;;;15.10;;
8632;SDS011;4354;49.832;10.746;2023-02-15T02:06:09;35.97;;;14.33;;
8632;SDS011;4354;49.832;10.746;2023-02-15T02:08:36;58.80;;;16.13;;
8632;SDS011;4354;49.832;10.746;2023-02-15T02:11:08;66.30;;;16.77;;
8632;SDS011;4354;49.832;10.746;2023-02-15T02:13:37;69.63;;;17.57;;
8632;SDS011;4354;49.832;10.746;2023-02-15T02:26:55;30.00;;;16.00;;
8632;SDS011;4354;49.832;10.746;2023-02-15T02:35:25;49.60;;;17.73;;
8632;SDS011;4354;49.832;10.746;2023-02-15T02:38:11;38.13;;;16.73;;
8632;SDS011;4354;49.832;10.746;2023-02-15T02:41:25;37.53;;;16.80;;
8632;SDS011;4354;49.832;10.746;2023-02-15T02:44:17;43.97;;;15.67;;
8632;SDS011;4354;49.832;10.746;2023-02-15T02:46:56;45.03;;;15.73;;
8632;SDS011;4354;49.832;10.746;2023-02-15T02:49:30;45.03;;;15.30;;
8632;SDS011;4354;49.832;10.746;2023-02-15T02:52:06;58.20;;;16.00;;
8632;SDS011;4354;49.832;10.746;2023-02-15T02:54:54;78.20;;;17.50;;
8632;SDS011;4354;49.832;10.746;2023-02-15T02:57:22;37.40;;;16.93;;
8632;SDS011;4354;49.832;10.746;2023-02-15T02:59:53;34.50;;;16.83;;
8632;SDS011;4354;49.832;10.746;2023-02-15T03:02:27;68.50;;;17.67;;
8632;SDS011;4354;49.832;10.746;2023-02-15T03:04:59;70.07;;;18.47;;
8632;SDS011;4354;49.832;10.746;2023-02-15T03:07:32;41.03;;;16.83;;
8632;SDS011;4354;49.832;10.746;2023-02-15T03:10:02;44.60;;;17.53;;
8632;SDS011;4354;49.832;10.746;2023-02-15T03:12:34;35.83;;;17.40;;
8632;SDS011;4354;49.832;10.746;2023-02-15T03:17:34;41.93;;;17.60;;
8632;SDS011;4354;49.832;10.746;2023-02-15T03:20:07;41.90;;;18.33;;
8632;SDS011;4354;49.832;10.746;2023-02-15T03:22:50;37.20;;;17.80;;
8632;SDS011;4354;49.832;10.746;2023-02-15T03:25:22;52.40;;;18.97;;
8632;SDS011;4354;49.832;10.746;2023-02-15T03:28:11;53.43;;;19.37;;
8632;SDS011;4354;49.832;10.746;2023-02-15T03:30:43;59.60;;;18.40;;
8632;SDS011;4354;49.832;10.746;2023-02-15T03:33:15;43.83;;;19.10;;
8632;SDS011;4354;49.832;10.746;2023-02-15T03:35:47;64.23;;;20.27;;
8632;SDS011;4354;49.832;10.746;2023-02-15T03:38:24;50.60;;;17.87;;
8632;SDS011;4354;49.832;10.746;2023-02-15T03:40:55;51.07;;;17.60;;
8632;SDS011;4354;49.832;10.746;2023-02-15T03:49:20;42.87;;;19.37;;
8632;SDS011;4354;49.832;10.746;2023-02-15T03:51:54;40.10;;;17.73;;
8632;SDS011;4354;49.832;10.746;2023-02-15T03:54:29;51.40;;;18.87;;
8632;SDS011;4354;49.832;10.746;2023-02-15T03:57:19;39.00;;;16.87;;
8632;SDS011;4354;49.832;10.746;2023-02-15T04:00:09;40.97;;;16.50;;
8632;SDS011;4354;49.832;10.746;2023-02-15T04:03:15;32.03;;;15.07;;
8632;SDS011;4354;49.832;10.746;2023-02-15T04:05:57;40.77;;;16.27;;
8632;SDS011;4354;49.832;10.746;2023-02-15T04:08:24;44.80;;;16.63;;
8632;SDS011;4354;49.832;10.746;2023-02-15T04:11:11;36.87;;;17.10;;
8632;SDS011;4354;49.832;10.746;2023-02-15T04:13:37;35.27;;;16.97;;
8632;SDS011;4354;49.832;10.746;2023-02-15T04:16:05;36.13;;;17.30;;
8632;SDS011;4354;49.832;10.746;2023-02-15T04:21:23;36.83;;;17.23;;
8632;SDS011;4354;49.832;10.746;2023-02-15T04:24:10;37.63;;;17.73;;
8632;SDS011;4354;49.832;10.746;2023-02-15T04:26:55;38.57;;;18.00;;
8632;SDS011;4354;49.832;10.746;2023-02-15T04:29:23;35.43;;;17.57;;
8632;SDS011;4354;49.832;10.746;2023-02-15T04:31:51;47.10;;;18.57;;
8632;SDS011;4354;49.832;10.746;2023-02-15T04:34:19;39.63;;;18.50;;
8632;SDS011;4354;49.832;10.746;2023-02-15T04:36:46;70.00;;;18.53;;
8632;SDS011;4354;49.832;10.746;2023-02-15T04:39:14;47.10;;;18.43;;
8632;SDS011;4354;49.832;10.746;2023-02-15T04:41:41;49.53;;;18.60;;
8632;SDS011;4354;49.832;10.746;2023-02-15T04:44:08;43.33;;;18.53;;
8632;SDS011;4354;49.832;10.746;2023-02-15T04:46:35;38.80;;;18.60;;
8632;SDS011;4354;49.832;10.746;2023-02-15T04:49:03;37.30;;;17.37;;
8632;SDS011;4354;49.832;10.746;2023-02-15T04:51:30;39.60;;;16.73;;
8632;SDS011;4354;49.832;10.746;2023-02-15T04:53:56;42.10;;;18.20;;
8632;SDS011;4354;49.832;10.746;2023-02-15T04:56:23;55.27;;;18.23;;
8632;SDS011;4354;49.832;10.746;2023-02-15T04:58:50;41.80;;;20.63;;
8632;SDS011;4354;49.832;10.746;2023-02-15T05:01:17;64.20;;;22.57;;
8632;SDS011;4354;49.832;10.746;2023-02-15T05:03:45;49.50;;;17.80;;
8632;SDS011;4354;49.832;10.746;2023-02-15T05:06:14;62.03;;;23.17;;
8632;SDS011;4354;49.832;10.746;2023-02-15T05:08:41;46.90;;;19.43;;
8632;SDS011;4354;49.832;10.746;2023-02-15T05:11:08;55.80;;;19.83;;
8632;SDS011;4354;49.832;10.746;2023-02-15T05:13:35;74.20;;;19.63;;
8632;SDS011;4354;49.832;10.746;2023-02-15T05:16:02;47.10;;;17.77;;
8632;SDS011;4354;49.832;10.746;2023-02-15T05:18:29;55.30;;;18.73;;
8632;SDS011;4354;49.832;10.746;2023-02-15T05:20:56;59.50;;;18.83;;
8632;SDS011;4354;49.832;10.746;2023-02-15T05:23:23;48.47;;;19.07;;
8632;SDS011;4354;49.832;10.746;2023-02-15T05:25:49;47.23;;;18.80;;
8632;SDS011;4354;49.832;10.746;2023-02-15T05:28:36;67.03;;;20.40;;
8632;SDS011;4354;49.832;10.746;2023-02-15T05:31:10;62.63;;;20.47;;
8632;SDS011;4354;49.832;10.746;2023-02-15T05:33:43;48.00;;;18.47;;
8632;SDS011;4354;49.832;10.746;2023-02-15T05:36:10;55.73;;;19.87;;
8632;SDS011;4354;49.832;10.746;2023-02-15T05:38:37;45.97;;;17.87;;
8632;SDS011;4354;49.832;10.746;2023-02-15T05:41:05;46.30;;;19.20;;
8632;SDS011;4354;49.832;10.746;2023-02-15T05:43:32;43.60;;;18.53;;
8632;SDS011;4354;49.832;10.746;2023-02-15T05:46:00;42.47;;;18.57;;
8632;SDS011;4354;49.832;10.746;2023-02-15T05:48:28;49.40;;;18.67;;
8632;SDS011;4354;49.832;10.746;2023-02-15T05:51:05;66.20;;;19.93;;
8632;SDS011;4354;49.832;10.746;2023-02-15T05:53:37;44.33;;;19.33;;
8632;SDS011;4354;49.832;10.746;2023-02-15T05:56:05;50.13;;;18.97;;
8632;SDS011;4354;49.832;10.746;2023-02-15T05:58:35;63.57;;;19.77;;
8632;SDS011;4354;49.832;10.746;2023-02-15T06:01:09;68.80;;;19.30;;
8632;SDS011;4354;49.832;10.746;2023-02-15T06:03:38;44.20;;;17.93;;
8632;SDS011;4354;49.832;10.746;2023-02-15T06:06:05;54.73;;;19.13;;
8632;SDS011;4354;49.832;10.746;2023-02-15T06:08:33;58.93;;;20.50;;
8632;SDS011;4354;49.832;10.746;2023-02-15T06:11:01;48.53;;;20.50;;
8632;SDS011;4354;49.832;10.746;2023-02-15T06:13:28;46.97;;;19.53;;
8632;SDS011;4354;49.832;10.746;2023-02-15T06:15:55;43.73;;;19.87;;
8632;SDS011;4354;49.832;10.746;2023-02-15T06:18:21;48.67;;;20.23;;
8632;SDS011;4354;49.832;10.746;2023-02-15T06:20:48;46.20;;;20.20;;
8632;SDS011;4354;49.832;10.746;2023-02-15T06:23:15;53.03;;;19.80;;
8632;SDS011;4354;49.832;10.746;2023-02-15T06:25:43;57.87;;;19.27;;
8632;SDS011;4354;49.832;10.746;2023-02-15T06:28:11;45.13;;;19.33;;
8632;SDS011;4354;49.832;10.746;2023-02-15T06:30:39;65.53;;;21.60;;
8632;SDS011;4354;49.832;10.746;2023-02-15T06:33:06;54.63;;;21.33;;
8632;SDS011;4354;49.832;10.746;2023-02-15T06:35:32;51.40;;;20.73;;
8632;SDS011;4354;49.832;10.746;2023-02-15T06:37:59;44.07;;;20.23;;
8632;SDS011;4354;49.832;10.746;2023-02-15T06:40:26;48.77;;;19.93;;
8632;SDS011;4354;49.832;10.746;2023-02-15T06:42:52;47.27;;;19.90;;
8632;SDS011;4354;49.832;10.746;2023-02-15T06:45:19;58.07;;;20.97;;
8632;SDS011;4354;49.832;10.746;2023-02-15T06:47:46;44.17;;;19.73;;
8632;SDS011;4354;49.832;10.746;2023-02-15T06:50:12;67.57;;;22.17;;
8632;SDS011;4354;49.832;10.746;2023-02-15T06:52:39;65.53;;;22.67;;
8632;SDS011;4354;49.832;10.746;2023-02-15T06:55:06;49.47;;;21.90;;
8632;SDS011;4354;49.832;10.746;2023-02-15T06:57:33;71.60;;;22.53;;
8632;SDS011;4354;49.832;10.746;2023-02-15T06:59:59;68.30;;;22.37;;
8632;SDS011;4354;49.832;10.746;2023-02-15T07:02:27;47.67;;;21.80;;
8632;SDS011;4354;49.832;10.746;2023-02-15T07:04:54;52.50;;;21.50;;
8632;SDS011;4354;49.832;10.746;2023-02-15T07:07:21;58.57;;;22.83;;
8632;SDS011;4354;49.832;10.746;2023-02-15T07:09:48;51.00;;;22.83;;
8632;SDS011;4354;49.832;10.746;2023-02-15T07:12:14;51.00;;;22.47;;
8632;SDS011;4354;49.832;10.746;2023-02-15T07:15:00;53.07;;;21.83;;
8632;SDS011;4354;49.832;10.746;2023-02-15T07:17:26;51.90;;;23.77;;
8632;SDS011;4354;49.832;10.746;2023-02-15T07:20:05;71.97;;;23.30;;
8632;SDS011;4354;49.832;10.746;2023-02-15T07:22:34;63.70;;;24.83;;
8632;SDS011;4354;49.832;10.746;2023-02-15T07:25:03;72.20;;;25.27;;
8632;SDS011;4354;49.832;10.746;2023-02-15T07:27:30;64.63;;;25.77;;
8632;SDS011;4354;49.832;10.746;2023-02-15T07:29:58;68.43;;;25.20;;
8632;SDS011;4354;49.832;10.746;2023-02-15T07:32:29;79.87;;;26.07;;
8632;SDS011;4354;49.832;10.746;2023-02-15T07:34:57;62.97;;;25.67;;
8632;SDS011;4354;49.832;10.746;2023-02-15T07:37:25;69.37;;;28.00;;
8632;SDS011;4354;49.832;10.746;2023-02-15T07:39:52;60.40;;;27.27;;
8632;SDS011;4354;49.832;10.746;2023-02-15T07:42:19;61.97;;;26.10;;
8632;SDS011;4354;49.832;10.746;2023-02-15T07:44:47;62.10;;;24.37;;
8632;SDS011;4354;49.832;10.746;2023-02-15T07:47:14;54.80;;;24.47;;
8632;SDS011;4354;49.832;10.746;2023-02-15T07:49:40;68.63;;;24.17;;
8632;SDS011;4354;49.832;10.746;2023-02-15T07:52:07;61.33;;;25.53;;
8632;SDS011;4354;49.832;10.746;2023-02-15T07:54:34;59.43;;;25.53;;
8632;SDS011;4354;49.832;10.746;2023-02-15T07:57:01;54.53;;;25.40;;
8632;SDS011;4354;49.832;10.746;2023-02-15T07:59:28;53.73;;;24.87;;
8632;SDS011;4354;49.832;10.746;2023-02-15T08:01:54;45.77;;;22.77;;
8632;SDS011;4354;49.832;10.746;2023-02-15T08:04:22;44.27;;;22.93;;
8632;SDS011;4354;49.832;10.746;2023-02-15T08:06:51;48.23;;;21.60;;
8632;SDS011;4354;49.832;10.746;2023-02-15T08:09:19;36.53;;;19.50;;
8632;SDS011;4354;49.832;10.746;2023-02-15T08:11:46;42.07;;;22.40;;
8632;SDS011;4354;49.832;10.746;2023-02-15T08:16:51;40.87;;;20.40;;
8632;SDS011;4354;49.832;10.746;2023-02-15T08:19:20;37.23;;;20.43;;
8632;SDS011;4354;49.832;10.746;2023-02-15T08:21:51;40.70;;;20.23;;
8632;SDS011;4354;49.832;10.746;2023-02-15T08:24:20;36.93;;;20.50;;
8632;SDS011;4354;49.832;10.746;2023-02-15T08:26:48;36.47;;;20.73;;
8632;SDS011;4354;49.832;10.746;2023-02-15T08:29:17;34.27;;;20.27;;
8632;SDS011;4354;49.832;10.746;2023-02-15T08:31:46;38.73;;;19.93;;
8632;SDS011;4354;49.832;10.746;2023-02-15T08:34:15;37.30;;;20.67;;
8632;SDS011;4354;49.832;10.746;2023-02-15T08:36:44;36.13;;;20.17;;
8632;SDS011;4354;49.832;10.746;2023-02-15T08:39:12;35.63;;;19.07;;
8632;SDS011;4354;49.832;10.746;2023-02-15T08:41:41;45.73;;;24.80;;
8632;SDS011;4354;49.832;10.746;2023-02-15T08:44:12;43.10;;;21.03;;
8632;SDS011;4354;49.832;10.746;2023-02-15T08:46:42;34.03;;;20.33;;
8632;SDS011;4354;49.832;10.746;2023-02-15T08:49:11;31.80;;;19.03;;
8632;SDS011;4354;49.832;10.746;2023-02-15T08:51:41;31.83;;;19.80;;
8632;SDS011;4354;49.832;10.746;2023-02-15T08:54:09;32.07;;;19.63;;
8632;SDS011;4354;49.832;10.746;2023-02-15T08:56:39;32.43;;;19.50;;
8632;SDS011;4354;49.832;10.746;2023-02-15T08:59:11;28.30;;;19.17;;
8632;SDS011;4354;49.832;10.746;2023-02-15T09:01:40;29.23;;;17.93;;
8632;SDS011;4354;49.832;10.746;2023-02-15T09:04:07;28.90;;;19.10;;
8632;SDS011;4354;49.832;10.746;2023-02-15T09:06:39;33.43;;;20.10;;
8632;SDS011;4354;49.832;10.746;2023-02-15T09:09:07;31.77;;;19.17;;
8632;SDS011;4354;49.832;10.746;2023-02-15T09:11:35;30.03;;;18.67;;
8632;SDS011;4354;49.832;10.746;2023-02-15T09:14:05;31.63;;;19.83;;
8632;SDS011;4354;49.832;10.746;2023-02-15T09:16:35;29.33;;;18.00;;
8632;SDS011;4354;49.832;10.746;2023-02-15T09:19:04;30.57;;;18.87;;
8632;SDS011;4354;49.832;10.746;2023-02-15T09:21:32;32.10;;;19.73;;
8632;SDS011;4354;49.832;10.746;2023-02-15T09:24:03;32.90;;;19.43;;
8632;SDS011;4354;49.832;10.746;2023-02-15T09:26:32;29.53;;;18.87;;
8632;SDS011;4354;49.832;10.746;2023-02-15T09:29:01;36.37;;;20.50;;
8632;SDS011;4354;49.832;10.746;2023-02-15T09:31:31;33.37;;;21.60;;
8632;SDS011;4354;49.832;10.746;2023-02-15T09:34:00;36.43;;;21.93;;
8632;SDS011;4354;49.832;10.746;2023-02-15T09:36:31;36.73;;;22.10;;
8632;SDS011;4354;49.832;10.746;2023-02-15T09:46:57;33.17;;;20.47;;
8632;SDS011;4354;49.832;10.746;2023-02-15T09:49:54;34.30;;;22.93;;
8632;SDS011;4354;49.832;10.746;2023-02-15T09:52:55;31.40;;;20.17;;
8632;SDS011;4354;49.832;10.746;2023-02-15T10:17:28;31.13;;;18.47;;
8632;SDS011;4354;49.832;10.746;2023-02-15T10:20:17;27.47;;;17.33;;
8632;SDS011;4354;49.832;10.746;2023-02-15T10:23:11;28.40;;;17.70;;
8632;SDS011;4354;49.832;10.746;2023-02-15T10:28:16;28.30;;;17.67;;
8632;SDS011;4354;49.832;10.746;2023-02-15T10:30:50;26.67;;;16.70;;
8632;SDS011;4354;49.832;10.746;2023-02-15T10:39:00;29.00;;;18.47;;
8632;SDS011;4354;49.832;10.746;2023-02-15T10:47:41;29.20;;;18.37;;
8632;SDS011;4354;49.832;10.746;2023-02-15T10:55:45;29.50;;;17.67;;
8632;SDS011;4354;49.832;10.746;2023-02-15T11:01:03;29.37;;;17.63;;
8632;SDS011;4354;49.832;10.746;2023-02-15T11:03:58;28.93;;;19.33;;
8632;SDS011;4354;49.832;10.746;2023-02-15T11:06:37;29.93;;;18.50;;
8632;SDS011;4354;49.832;10.746;2023-02-15T11:09:09;31.80;;;19.60;;
8632;SDS011;4354;49.832;10.746;2023-02-15T11:11:39;33.60;;;20.63;;
8632;SDS011;4354;49.832;10.746;2023-02-15T11:16:38;31.53;;;18.63;;
8632;SDS011;4354;49.832;10.746;2023-02-15T11:21:53;27.57;;;17.37;;
8632;SDS011;4354;49.832;10.746;2023-02-15T11:24:26;32.00;;;20.07;;
8632;SDS011;4354;49.832;10.746;2023-02-15T11:26:57;24.53;;;17.33;;
8632;SDS011;4354;49.832;10.746;2023-02-15T11:29:32;27.17;;;16.57;;
8632;SDS011;4354;49.832;10.746;2023-02-15T11:32:11;31.10;;;18.87;;
8632;SDS011;4354;49.832;10.746;2023-02-15T11:34:53;28.40;;;17.40;;
8632;SDS011;4354;49.832;10.746;2023-02-15T11:37:50;28.97;;;17.93;;
8632;SDS011;4354;49.832;10.746;2023-02-15T11:40:26;29.57;;;18.90;;
8632;SDS011;4354;49.832;10.746;2023-02-15T11:43:00;29.37;;;18.77;;
8632;SDS011;4354;49.832;10.746;2023-02-15T11:45:33;39.37;;;22.77;;
8632;SDS011;4354;49.832;10.746;2023-02-15T11:48:00;29.70;;;19.10;;
8632;SDS011;4354;49.832;10.746;2023-02-15T11:50:36;30.30;;;18.23;;
8632;SDS011;4354;49.832;10.746;2023-02-15T11:53:22;27.93;;;18.33;;
8632;SDS011;4354;49.832;10.746;2023-02-15T11:55:54;30.00;;;19.67;;
8632;SDS011;4354;49.832;10.746;2023-02-15T12:03:52;33.67;;;19.13;;
8632;SDS011;4354;49.832;10.746;2023-02-15T12:06:25;30.10;;;19.17;;
8632;SDS011;4354;49.832;10.746;2023-02-15T12:14:57;29.47;;;18.17;;
8632;SDS011;4354;49.832;10.746;2023-02-15T12:17:26;31.17;;;18.87;;
8632;SDS011;4354;49.832;10.746;2023-02-15T12:19:56;28.70;;;18.80;;
8632;SDS011;4354;49.832;10.746;2023-02-15T12:22:28;26.70;;;18.97;;
8632;SDS011;4354;49.832;10.746;2023-02-15T12:24:58;27.27;;;17.47;;
8632;SDS011;4354;49.832;10.746;2023-02-15T12:27:32;29.57;;;18.30;;
8632;SDS011;4354;49.832;10.746;2023-02-15T12:30:07;26.80;;;17.63;;
8632;SDS011;4354;49.832;10.746;2023-02-15T12:32:54;32.03;;;18.37;;
8632;SDS011;4354;49.832;10.746;2023-02-15T12:35:28;26.87;;;17.33;;
8632;SDS011;4354;49.832;10.746;2023-02-15T12:38:04;28.53;;;18.10;;
8632;SDS011;4354;49.832;10.746;2023-02-15T12:40:37;28.97;;;18.93;;
8632;SDS011;4354;49.832;10.746;2023-02-15T12:43:24;26.60;;;18.00;;
8632;SDS011;4354;49.832;10.746;2023-02-15T12:45:53;27.40;;;18.27;;
8632;SDS011;4354;49.832;10.746;2023-02-15T12:48:30;26.87;;;19.23;;
8632;SDS011;4354;49.832;10.746;2023-02-15T12:51:05;27.67;;;17.70;;
8632;SDS011;4354;49.832;10.746;2023-02-15T12:53:35;28.20;;;19.00;;
8632;SDS011;4354;49.832;10.746;2023-02-15T12:56:06;28.17;;;18.13;;
8632;SDS011;4354;49.832;10.746;2023-02-15T12:58:38;27.00;;;18.27;;
8632;SDS011;4354;49.832;10.746;2023-02-15T13:01:16;25.23;;;16.70;;
8632;SDS011;4354;49.832;10.746;2023-02-15T13:06:21;27.03;;;17.63;;
8632;SDS011;4354;49.832;10.746;2023-02-15T13:08:49;26.47;;;18.10;;
8632;SDS011;4354;49.832;10.746;2023-02-15T13:11:35;26.33;;;18.03;;
8632;SDS011;4354;49.832;10.746;2023-02-15T13:14:13;26.87;;;17.70;;
8632;SDS011;4354;49.832;10.746;2023-02-15T13:16:48;26.17;;;17.27;;
8632;SDS011;4354;49.832;10.746;2023-02-15T13:19:37;25.00;;;17.33;;
8632;SDS011;4354;49.832;10.746;2023-02-15T13:22:10;29.63;;;19.40;;
8632;SDS011;4354;49.832;10.746;2023-02-15T13:24:45;24.90;;;17.60;;
8632;SDS011;4354;49.832;10.746;2023-02-15T13:27:16;28.00;;;18.87;;
8632;SDS011;4354;49.832;10.746;2023-02-15T13:29:46;25.83;;;17.67;;
8632;SDS011;4354;49.832;10.746;2023-02-15T13:32:25;27.70;;;18.60;;
8632;SDS011;4354;49.832;10.746;2023-02-15T13:34:56;27.77;;;17.70;;
8632;SDS011;4354;49.832;10.746;2023-02-15T13:37:32;25.17;;;16.50;;
8632;SDS011;4354;49.832;10.746;2023-02-15T13:40:08;25.23;;;17.30;;
8632;SDS011;4354;49.832;10.746;2023-02-15T13:42:44;26.10;;;17.70;;
8632;SDS011;4354;49.832;10.746;2023-02-15T13:56:53;27.23;;;18.17;;
8632;SDS011;4354;49.832;10.746;2023-02-15T13:59:34;26.40;;;18.07;;
8632;SDS011;4354;49.832;10.746;2023-02-15T14:05:09;33.10;;;19.23;;
8632;SDS011;4354;49.832;10.746;2023-02-15T14:10:20;27.97;;;17.83;;
8632;SDS011;4354;49.832;10.746;2023-02-15T14:15:48;30.73;;;19.30;;
8632;SDS011;4354;49.832;10.746;2023-02-15T14:21:32;29.57;;;19.67;;
8632;SDS011;4354;49.832;10.746;2023-02-15T14:32:48;29.53;;;18.50;;
8632;SDS011;4354;49.832;10.746;2023-02-15T14:35:22;29.77;;;20.37;;
8632;SDS011;4354;49.832;10.746;2023-02-15T14:37:58;34.07;;;20.77;;
8632;SDS011;4354;49.832;10.746;2023-02-15T14:40:36;31.20;;;20.00;;
8632;SDS011;4354;49.832;10.746;2023-02-15T14:48:52;32.63;;;20.07;;
8632;SDS011;4354;49.832;10.746;2023-02-15T14:54:10;31.43;;;19.27;;
8632;SDS011;4354;49.832;10.746;2023-02-15T14:56:46;30.83;;;18.77;;
8632;SDS011;4354;49.832;10.746;2023-02-15T14:59:26;28.80;;;19.13;;
8632;SDS011;4354;49.832;10.746;2023-02-15T15:02:18;29.23;;;19.67;;
8632;SDS011;4354;49.832;10.746;2023-02-15T15:04:55;30.87;;;20.50;;
8632;SDS011;4354;49.832;10.746;2023-02-15T15:07:38;30.13;;;19.63;;
8632;SDS011;4354;49.832;10.746;2023-02-15T15:12:48;31.03;;;19.70;;
8632;SDS011;4354;49.832;10.746;2023-02-15T15:25:44;35.27;;;22.13;;
8632;SDS011;4354;49.832;10.746;2023-02-15T15:33:50;30.67;;;20.23;;
8632;SDS011;4354;49.832;10.746;2023-02-15T15:42:32;31.33;;;20.73;;
8632;SDS011;4354;49.832;10.746;2023-02-15T15:51:06;33.27;;;20.73;;
8632;SDS011;4354;49.832;10.746;2023-02-15T15:53:47;30.57;;;20.33;;
8632;SDS011;4354;49.832;10.746;2023-02-15T15:56:20;29.73;;;20.17;;
8632;SDS011;4354;49.832;10.746;2023-02-15T15:58:55;28.23;;;19.20;;
8632;SDS011;4354;49.832;10.746;2023-02-15T16:01:35;30.00;;;19.60;;
8632;SDS011;4354;49.832;10.746;2023-02-15T16:04:10;33.97;;;20.63;;
8632;SDS011;4354;49.832;10.746;2023-02-15T16:06:39;32.50;;;19.57;;
8632;SDS011;4354;49.832;10.746;2023-02-15T16:09:10;30.43;;;19.77;;
8632;SDS011;4354;49.832;10.746;2023-02-15T16:11:45;30.33;;;19.97;;
8632;SDS011;4354;49.832;10.746;2023-02-15T16:14:25;31.20;;;20.10;;
8632;SDS011;4354;49.832;10.746;2023-02-15T16:16:59;33.10;;;21.47;;
8632;SDS011;4354;49.832;10.746;2023-02-15T16:19:34;31.27;;;19.43;;
8632;SDS011;4354;49.832;10.746;2023-02-15T16:22:04;32.70;;;20.67;;
8632;SDS011;4354;49.832;10.746;2023-02-15T16:29:37;35.87;;;21.93;;
8632;SDS011;4354;49.832;10.746;2023-02-15T16:32:05;34.23;;;20.97;;
8632;SDS011;4354;49.832;10.746;2023-02-15T16:35:00;33.57;;;21.90;;
8632;SDS011;4354;49.832;10.746;2023-02-15T16:37:33;39.00;;;23.23;;
8632;SDS011;4354;49.832;10.746;2023-02-15T16:40:00;36.30;;;22.90;;
8632;SDS011;4354;49.832;10.746;2023-02-15T16:42:27;40.63;;;23.47;;
8632;SDS011;4354;49.832;10.746;2023-02-15T16:44:55;35.17;;;21.10;;
8632;SDS011;4354;49.832;10.746;2023-02-15T16:47:27;34.73;;;22.27;;
8632;SDS011;4354;49.832;10.746;2023-02-15T16:49:58;37.80;;;23.30;;
8632;SDS011;4354;49.832;10.746;2023-02-15T16:52:27;43.97;;;24.23;;
8632;SDS011;4354;49.832;10.746;2023-02-15T16:54:56;38.30;;;22.57;;
8632;SDS011;4354;49.832;10.746;2023-02-15T16:57:29;39.93;;;22.40;;
8632;SDS011;4354;49.832;10.746;2023-02-15T17:00:14;42.57;;;24.07;;
8632;SDS011;4354;49.832;10.746;2023-02-15T17:02:53;39.33;;;23.23;;
8632;SDS011;4354;49.832;10.746;2023-02-15T17:05:24;38.53;;;23.37;;
8632;SDS011;4354;49.832;10.746;2023-02-15T17:08:04;43.67;;;26.67;;
8632;SDS011;4354;49.832;10.746;2023-02-15T17:10:39;43.27;;;25.57;;
8632;SDS011;4354;49.832;10.746;2023-02-15T17:13:12;41.37;;;25.53;;
8632;SDS011;4354;49.832;10.746;2023-02-15T17:18:25;44.27;;;26.87;;
8632;SDS011;4354;49.832;10.746;2023-02-15T17:20:55;48.97;;;26.60;;
8632;SDS011;4354;49.832;10.746;2023-02-15T17:23:31;42.77;;;25.93;;
8632;SDS011;4354;49.832;10.746;2023-02-15T17:26:10;47.67;;;27.50;;
8632;SDS011;4354;49.832;10.746;2023-02-15T17:28:45;48.63;;;27.10;;
8632;SDS011;4354;49.832;10.746;2023-02-15T17:31:16;48.67;;;28.87;;
8632;SDS011;4354;49.832;10.746;2023-02-15T17:33:47;44.87;;;26.60;;
8632;SDS011;4354;49.832;10.746;2023-02-15T17:36:19;48.17;;;28.07;;
8632;SDS011;4354;49.832;10.746;2023-02-15T17:43:51;47.93;;;27.30;;
8632;SDS011;4354;49.832;10.746;2023-02-15T17:46:17;49.37;;;27.60;;
8632;SDS011;4354;49.832;10.746;2023-02-15T17:48:51;51.50;;;30.27;;
8632;SDS011;4354;49.832;10.746;2023-02-15T17:51:20;50.30;;;27.63;;
8632;SDS011;4354;49.832;10.746;2023-02-15T17:53:47;44.83;;;27.20;;
8632;SDS011;4354;49.832;10.746;2023-02-15T17:56:33;52.13;;;27.27;;
8632;SDS011;4354;49.832;10.746;2023-02-15T17:59:00;57.00;;;28.00;;
8632;SDS011;4354;49.832;10.746;2023-02-15T18:01:27;109.53;;;30.23;;
8632;SDS011;4354;49.832;10.746;2023-02-15T18:04:13;76.63;;;29.50;;
8632;SDS011;4354;49.832;10.746;2023-02-15T18:06:59;55.97;;;27.93;;
8632;SDS011;4354;49.832;10.746;2023-02-15T18:09:44;51.30;;;27.40;;
8632;SDS011;4354;49.832;10.746;2023-02-15T18:12:31;61.37;;;28.53;;